Language selection

Features

My Weather Profile Weather Topics  | 

Central Coast from McInnes Island to Pine Island: Past 24 Hour Conditions

 

South Hecate Strait - 46185

12:00 PM PST 22 November 2019Buoy position: 52.43N 129.79W
Disclaimer

This table is a summary of hourly weather conditions for the past 24 hours.
Please note that these observations might not always be representative of weather conditions over their associated marine area.

Date / Time
(PST)
Wind(knots) Wave height(m) Wave period(s) Pressure(kPa) Air tempC) Water tempC)
22 November 2019
12:00 S 22 gust 25 2.3 6.0 101.4 11 10
11:00 SSW 19 gust 25 2.0 6.0 101.5 11 10
10:00 SSW 17 gust 22 2.2 6.0 101.5 11 10
9:00 SSW 19 gust 23 2.2 6.0 101.4 11 10
8:00 SSW 19 gust 23 2.3 6.0 101.4 11 10
7:00 SSW 19 gust 23 2.3 7.0 101.5 11 10
6:00 SSW 19 gust 23 2.5 10.0 101.5 10 10
5:00 S 19 gust 23 2.4 6.0 101.5 10 10
4:00 S 22 gust 25 2.3 6.0 101.5 10 10
3:00 S 23 gust 29 2.2 11.0 101.5 10 10
2:00 S 22 gust 23 2.2 12.0 101.6 10 10
1:00 S 19 gust 22 2.2 12.0 101.6 9 10
0:00 S 16 gust 19 2.2 11.0 101.6 9 10
21 November 2019
23:00 SSW 17 gust 22 2.4 12.0 101.5 10 10
22:00 SSW 13 gust 16 2.4 7.0 101.5 10 10
21:00 SW 16 gust 22 2.5 7.0 101.4 10 10
20:00 SW 19 gust 23 2.8 8.0 101.3 11 10
19:00 SW 22 gust 29 3.1 7.0 101.1 11 10
18:00 SW 23 gust 27 3.5 8.0 101.0 11 10
17:00 SW 23 gust 31 3.6 8.0 101.0 11 10
16:00 SSW 25 N/A N/A 100.9 10 N/A
15:00 SSW 27 N/A N/A 100.8 10 N/A
14:00 SSW 25 gust 31 3.1 8.0 100.8 10 10
13:00 S 23 gust 29 2.9 7.0 100.8 11 10
12:00 S 23 gust 29 2.9 7.0 100.8 10 10

Zoom-in to make a selection

Map of Pacific - North Coast marine weather areas Middle Nomad - 46004 South Nomad - 46036 Dixon Entrance Central - 46145 South Moresby - 46147 Nanakwa Shoal - 46181 North Hecate Strait - 46183 North Nomad - 46184 South Hecate Strait - 46185 West Sea Otter - 46204 West Dixon Entrance - 46205 East Dellwood - 46207 West Moresby - 46208 Sartine Island Cape St.James Kindakun Rocks Langara Island Masset Municipal Airport Rose Spit Sandspit Airport Bella Bella Airport Bella Coola Airport Bonilla Island Cathedral Point Cumshewa Island Grey Islet Holland Rock Lucy Islands Lightstation Prince Rupert Airport
Legend:
buoy Buoy
land station Land Station

Pacific - North Coast Area

Another Region

What we are doing

Date modified: